sensor_id;sensor_type;location;lat;lon;timestamp;P1;durP1;ratioP1;P2;durP2;ratioP2
12048;SDS011;6085;49.452;8.502;2022-08-02T00:01:24;2.72;;;2.47;;
12048;SDS011;6085;49.452;8.502;2022-08-02T00:05:26;6.30;;;3.28;;
12048;SDS011;6085;49.452;8.502;2022-08-02T00:09:28;3.10;;;2.90;;
12048;SDS011;6085;49.452;8.502;2022-08-02T00:13:29;3.00;;;2.80;;
12048;SDS011;6085;49.452;8.502;2022-08-02T00:17:33;3.25;;;2.95;;
12048;SDS011;6085;49.452;8.502;2022-08-02T00:21:35;2.75;;;2.55;;
12048;SDS011;6085;49.452;8.502;2022-08-02T00:25:37;3.08;;;2.70;;
12048;SDS011;6085;49.452;8.502;2022-08-02T00:29:39;2.85;;;2.65;;
12048;SDS011;6085;49.452;8.502;2022-08-02T00:33:42;3.10;;;2.90;;
12048;SDS011;6085;49.452;8.502;2022-08-02T00:37:44;3.30;;;3.00;;
12048;SDS011;6085;49.452;8.502;2022-08-02T00:41:47;3.28;;;2.97;;
12048;SDS011;6085;49.452;8.502;2022-08-02T00:45:50;3.47;;;3.17;;
12048;SDS011;6085;49.452;8.502;2022-08-02T00:49:53;2.90;;;2.70;;
12048;SDS011;6085;49.452;8.502;2022-08-02T00:53:55;3.00;;;2.80;;
12048;SDS011;6085;49.452;8.502;2022-08-02T00:57:57;3.22;;;2.88;;
12048;SDS011;6085;49.452;8.502;2022-08-02T01:01:59;4.47;;;3.63;;
12048;SDS011;6085;49.452;8.502;2022-08-02T01:06:02;3.38;;;2.83;;
12048;SDS011;6085;49.452;8.502;2022-08-02T01:10:05;3.42;;;2.60;;
12048;SDS011;6085;49.452;8.502;2022-08-02T01:14:08;2.83;;;2.63;;
12048;SDS011;6085;49.452;8.502;2022-08-02T01:18:14;3.20;;;2.97;;
12048;SDS011;6085;49.452;8.502;2022-08-02T01:22:45;3.10;;;2.80;;
12048;SDS011;6085;49.452;8.502;2022-08-02T01:27:06;2.83;;;2.63;;
12048;SDS011;6085;49.452;8.502;2022-08-02T01:31:25;4.47;;;3.00;;
12048;SDS011;6085;49.452;8.502;2022-08-02T01:35:31;2.80;;;2.60;;
12048;SDS011;6085;49.452;8.502;2022-08-02T01:39:39;3.30;;;2.72;;
12048;SDS011;6085;49.452;8.502;2022-08-02T01:43:45;2.90;;;2.70;;
12048;SDS011;6085;49.452;8.502;2022-08-02T01:47:49;2.78;;;2.58;;
12048;SDS011;6085;49.452;8.502;2022-08-02T01:51:52;2.80;;;2.60;;
12048;SDS011;6085;49.452;8.502;2022-08-02T01:56:12;2.70;;;2.50;;
12048;SDS011;6085;49.452;8.502;2022-08-02T02:00:16;3.03;;;2.72;;
12048;SDS011;6085;49.452;8.502;2022-08-02T02:04:21;3.17;;;2.88;;
12048;SDS011;6085;49.452;8.502;2022-08-02T02:08:26;2.47;;;2.38;;
12048;SDS011;6085;49.452;8.502;2022-08-02T02:12:30;2.60;;;2.40;;
12048;SDS011;6085;49.452;8.502;2022-08-02T02:16:35;2.47;;;2.28;;
12048;SDS011;6085;49.452;8.502;2022-08-02T02:20:39;2.67;;;2.47;;
12048;SDS011;6085;49.452;8.502;2022-08-02T02:24:42;2.42;;;2.20;;
12048;SDS011;6085;49.452;8.502;2022-08-02T02:28:45;2.65;;;2.28;;
12048;SDS011;6085;49.452;8.502;2022-08-02T02:32:48;2.50;;;2.40;;
12048;SDS011;6085;49.452;8.502;2022-08-02T02:36:54;2.58;;;2.38;;
12048;SDS011;6085;49.452;8.502;2022-08-02T02:40:59;2.70;;;2.50;;
12048;SDS011;6085;49.452;8.502;2022-08-02T02:45:03;2.55;;;2.38;;
12048;SDS011;6085;49.452;8.502;2022-08-02T02:49:06;2.47;;;2.38;;
12048;SDS011;6085;49.452;8.502;2022-08-02T02:53:11;2.75;;;2.55;;
12048;SDS011;6085;49.452;8.502;2022-08-02T02:57:16;3.03;;;2.83;;
12048;SDS011;6085;49.452;8.502;2022-08-02T03:01:19;2.83;;;2.63;;
12048;SDS011;6085;49.452;8.502;2022-08-02T03:05:29;3.10;;;2.90;;
12048;SDS011;6085;49.452;8.502;2022-08-02T03:09:33;3.10;;;2.80;;
12048;SDS011;6085;49.452;8.502;2022-08-02T03:13:35;2.90;;;2.53;;
12048;SDS011;6085;49.452;8.502;2022-08-02T03:17:38;3.08;;;2.88;;
12048;SDS011;6085;49.452;8.502;2022-08-02T03:21:42;3.70;;;2.95;;
12048;SDS011;6085;49.452;8.502;2022-08-02T03:25:46;3.03;;;2.72;;
12048;SDS011;6085;49.452;8.502;2022-08-02T03:29:48;3.30;;;3.00;;
12048;SDS011;6085;49.452;8.502;2022-08-02T03:33:50;3.20;;;2.90;;
12048;SDS011;6085;49.452;8.502;2022-08-02T03:37:52;3.00;;;2.80;;
12048;SDS011;6085;49.452;8.502;2022-08-02T03:41:57;3.45;;;3.25;;
12048;SDS011;6085;49.452;8.502;2022-08-02T03:45:59;3.60;;;3.30;;
12048;SDS011;6085;49.452;8.502;2022-08-02T03:50:04;3.80;;;3.17;;
12048;SDS011;6085;49.452;8.502;2022-08-02T03:54:07;3.30;;;3.00;;
12048;SDS011;6085;49.452;8.502;2022-08-02T03:58:16;3.42;;;3.13;;
12048;SDS011;6085;49.452;8.502;2022-08-02T04:02:18;3.17;;;2.97;;
12048;SDS011;6085;49.452;8.502;2022-08-02T04:06:20;3.35;;;3.05;;
12048;SDS011;6085;49.452;8.502;2022-08-02T04:10:22;3.22;;;2.92;;
12048;SDS011;6085;49.452;8.502;2022-08-02T04:14:26;2.50;;;2.40;;
12048;SDS011;6085;49.452;8.502;2022-08-02T04:18:29;2.90;;;2.58;;
12048;SDS011;6085;49.452;8.502;2022-08-02T04:22:41;2.60;;;2.45;;
12048;SDS011;6085;49.452;8.502;2022-08-02T04:26:47;2.50;;;2.33;;
12048;SDS011;6085;49.452;8.502;2022-08-02T04:30:51;2.70;;;2.50;;
12048;SDS011;6085;49.452;8.502;2022-08-02T04:34:54;2.75;;;2.55;;
12048;SDS011;6085;49.452;8.502;2022-08-02T04:38:56;2.97;;;2.78;;
12048;SDS011;6085;49.452;8.502;2022-08-02T04:42:58;2.65;;;2.45;;
12048;SDS011;6085;49.452;8.502;2022-08-02T04:47:01;2.83;;;2.58;;
12048;SDS011;6085;49.452;8.502;2022-08-02T04:51:04;2.70;;;2.50;;
12048;SDS011;6085;49.452;8.502;2022-08-02T04:55:06;2.85;;;2.45;;
12048;SDS011;6085;49.452;8.502;2022-08-02T04:59:08;3.13;;;2.50;;
12048;SDS011;6085;49.452;8.502;2022-08-02T05:03:12;2.83;;;2.58;;
12048;SDS011;6085;49.452;8.502;2022-08-02T05:07:14;2.90;;;2.70;;
12048;SDS011;6085;49.452;8.502;2022-08-02T05:11:16;2.70;;;2.50;;
12048;SDS011;6085;49.452;8.502;2022-08-02T05:15:18;2.45;;;2.28;;
12048;SDS011;6085;49.452;8.502;2022-08-02T05:19:21;2.63;;;2.42;;
12048;SDS011;6085;49.452;8.502;2022-08-02T05:23:23;2.67;;;2.47;;
12048;SDS011;6085;49.452;8.502;2022-08-02T05:27:25;2.60;;;2.40;;
12048;SDS011;6085;49.452;8.502;2022-08-02T05:31:27;2.75;;;2.50;;
12048;SDS011;6085;49.452;8.502;2022-08-02T05:35:31;2.60;;;2.40;;
12048;SDS011;6085;49.452;8.502;2022-08-02T05:39:34;2.40;;;2.30;;
12048;SDS011;6085;49.452;8.502;2022-08-02T05:43:36;2.72;;;2.40;;
12048;SDS011;6085;49.452;8.502;2022-08-02T05:47:38;2.88;;;2.58;;
12048;SDS011;6085;49.452;8.502;2022-08-02T05:51:44;2.33;;;2.22;;
12048;SDS011;6085;49.452;8.502;2022-08-02T05:55:55;2.30;;;2.20;;
12048;SDS011;6085;49.452;8.502;2022-08-02T06:00:07;2.42;;;2.08;;
12048;SDS011;6085;49.452;8.502;2022-08-02T06:04:12;3.80;;;2.42;;
12048;SDS011;6085;49.452;8.502;2022-08-02T06:08:21;2.83;;;2.40;;
12048;SDS011;6085;49.452;8.502;2022-08-02T06:12:28;2.38;;;2.28;;
12048;SDS011;6085;49.452;8.502;2022-08-02T06:16:33;5.15;;;2.35;;
12048;SDS011;6085;49.452;8.502;2022-08-02T06:20:35;2.30;;;2.10;;
12048;SDS011;6085;49.452;8.502;2022-08-02T06:24:39;2.30;;;2.20;;
12048;SDS011;6085;49.452;8.502;2022-08-02T06:28:42;3.15;;;2.20;;
12048;SDS011;6085;49.452;8.502;2022-08-02T06:32:46;2.10;;;2.00;;
12048;SDS011;6085;49.452;8.502;2022-08-02T06:36:51;2.30;;;2.10;;
12048;SDS011;6085;49.452;8.502;2022-08-02T06:41:04;3.45;;;2.60;;
12048;SDS011;6085;49.452;8.502;2022-08-02T06:45:07;3.45;;;2.30;;
12048;SDS011;6085;49.452;8.502;2022-08-02T06:49:09;3.67;;;2.30;;
12048;SDS011;6085;49.452;8.502;2022-08-02T06:53:11;5.07;;;2.08;;
12048;SDS011;6085;49.452;8.502;2022-08-02T06:57:14;2.28;;;2.08;;
12048;SDS011;6085;49.452;8.502;2022-08-02T07:01:17;2.00;;;1.90;;
12048;SDS011;6085;49.452;8.502;2022-08-02T07:05:19;2.92;;;2.10;;
12048;SDS011;6085;49.452;8.502;2022-08-02T07:09:21;2.28;;;2.10;;
12048;SDS011;6085;49.452;8.502;2022-08-02T07:13:24;2.38;;;2.17;;
12048;SDS011;6085;49.452;8.502;2022-08-02T07:17:26;2.42;;;2.00;;
12048;SDS011;6085;49.452;8.502;2022-08-02T07:21:29;1.90;;;1.80;;
12048;SDS011;6085;49.452;8.502;2022-08-02T07:25:30;2.08;;;1.98;;
12048;SDS011;6085;49.452;8.502;2022-08-02T07:29:36;1.75;;;1.65;;
12048;SDS011;6085;49.452;8.502;2022-08-02T07:33:38;1.90;;;1.80;;
12048;SDS011;6085;49.452;8.502;2022-08-02T07:37:40;1.80;;;1.70;;
12048;SDS011;6085;49.452;8.502;2022-08-02T07:41:45;1.67;;;1.58;;
12048;SDS011;6085;49.452;8.502;2022-08-02T07:45:51;1.58;;;1.48;;
12048;SDS011;6085;49.452;8.502;2022-08-02T07:49:53;1.70;;;1.60;;
12048;SDS011;6085;49.452;8.502;2022-08-02T07:53:55;1.55;;;1.45;;
12048;SDS011;6085;49.452;8.502;2022-08-02T07:57:57;1.30;;;1.20;;
12048;SDS011;6085;49.452;8.502;2022-08-02T08:02:00;1.88;;;1.40;;
12048;SDS011;6085;49.452;8.502;2022-08-02T08:06:02;1.75;;;1.15;;
12048;SDS011;6085;49.452;8.502;2022-08-02T08:10:05;1.17;;;1.10;;
12048;SDS011;6085;49.452;8.502;2022-08-02T08:14:08;1.40;;;1.30;;
12048;SDS011;6085;49.452;8.502;2022-08-02T08:18:11;1.40;;;1.40;;
12048;SDS011;6085;49.452;8.502;2022-08-02T08:22:13;1.33;;;1.33;;
12048;SDS011;6085;49.452;8.502;2022-08-02T08:26:15;1.40;;;1.25;;
12048;SDS011;6085;49.452;8.502;2022-08-02T08:30:17;1.30;;;1.20;;
12048;SDS011;6085;49.452;8.502;2022-08-02T08:34:22;1.33;;;1.30;;
12048;SDS011;6085;49.452;8.502;2022-08-02T08:38:26;1.38;;;0.80;;
12048;SDS011;6085;49.452;8.502;2022-08-02T08:42:29;1.00;;;0.90;;
12048;SDS011;6085;49.452;8.502;2022-08-02T08:46:32;1.40;;;0.82;;
12048;SDS011;6085;49.452;8.502;2022-08-02T08:50:40;1.70;;;1.23;;
12048;SDS011;6085;49.452;8.502;2022-08-02T08:54:46;2.53;;;1.00;;
12048;SDS011;6085;49.452;8.502;2022-08-02T08:58:49;1.42;;;1.17;;
12048;SDS011;6085;49.452;8.502;2022-08-02T09:02:51;1.08;;;1.08;;
12048;SDS011;6085;49.452;8.502;2022-08-02T09:06:54;1.55;;;0.95;;
12048;SDS011;6085;49.452;8.502;2022-08-02T09:10:56;1.00;;;1.00;;
12048;SDS011;6085;49.452;8.502;2022-08-02T09:15:00;0.80;;;0.80;;
12048;SDS011;6085;49.452;8.502;2022-08-02T09:23:24;1.77;;;1.10;;
12048;SDS011;6085;49.452;8.502;2022-08-02T09:27:26;1.13;;;1.13;;
12048;SDS011;6085;49.452;8.502;2022-08-02T09:31:36;0.98;;;0.98;;
12048;SDS011;6085;49.452;8.502;2022-08-02T09:35:38;1.10;;;1.10;;
12048;SDS011;6085;49.452;8.502;2022-08-02T09:39:43;1.00;;;1.00;;
12048;SDS011;6085;49.452;8.502;2022-08-02T09:43:45;1.23;;;1.13;;
12048;SDS011;6085;49.452;8.502;2022-08-02T09:47:47;1.88;;;1.52;;
12048;SDS011;6085;49.452;8.502;2022-08-02T09:51:50;1.13;;;1.13;;
12048;SDS011;6085;49.452;8.502;2022-08-02T09:55:57;2.25;;;1.10;;
12048;SDS011;6085;49.452;8.502;2022-08-02T09:59:59;1.38;;;1.27;;
12048;SDS011;6085;49.452;8.502;2022-08-02T10:04:02;1.67;;;1.30;;
12048;SDS011;6085;49.452;8.502;2022-08-02T10:08:05;1.20;;;1.20;;
12048;SDS011;6085;49.452;8.502;2022-08-02T10:12:08;2.45;;;1.90;;
12048;SDS011;6085;49.452;8.502;2022-08-02T10:16:15;1.40;;;1.40;;
12048;SDS011;6085;49.452;8.502;2022-08-02T10:20:18;1.35;;;1.20;;
12048;SDS011;6085;49.452;8.502;2022-08-02T10:24:22;1.20;;;1.20;;
12048;SDS011;6085;49.452;8.502;2022-08-02T10:28:28;1.83;;;1.25;;
12048;SDS011;6085;49.452;8.502;2022-08-02T10:32:32;3.53;;;1.20;;
12048;SDS011;6085;49.452;8.502;2022-08-02T10:36:43;1.38;;;1.27;;
12048;SDS011;6085;49.452;8.502;2022-08-02T10:40:47;1.20;;;1.17;;
12048;SDS011;6085;49.452;8.502;2022-08-02T10:44:54;1.67;;;1.20;;
12048;SDS011;6085;49.452;8.502;2022-08-02T10:49:09;1.65;;;1.20;;
12048;SDS011;6085;49.452;8.502;2022-08-02T10:53:20;2.30;;;1.08;;
12048;SDS011;6085;49.452;8.502;2022-08-02T10:57:30;1.10;;;1.10;;
12048;SDS011;6085;49.452;8.502;2022-08-02T11:01:37;1.13;;;1.10;;
12048;SDS011;6085;49.452;8.502;2022-08-02T11:05:58;1.45;;;1.20;;
12048;SDS011;6085;49.452;8.502;2022-08-02T11:14:56;1.35;;;1.30;;
12048;SDS011;6085;49.452;8.502;2022-08-02T11:19:01;1.48;;;1.33;;
12048;SDS011;6085;49.452;8.502;2022-08-02T11:27:35;1.85;;;1.30;;
12048;SDS011;6085;49.452;8.502;2022-08-02T11:31:37;1.23;;;1.10;;
12048;SDS011;6085;49.452;8.502;2022-08-02T11:35:42;1.45;;;1.20;;
12048;SDS011;6085;49.452;8.502;2022-08-02T11:39:48;1.48;;;1.30;;
12048;SDS011;6085;49.452;8.502;2022-08-02T11:43:52;1.45;;;1.35;;
12048;SDS011;6085;49.452;8.502;2022-08-02T11:47:55;1.63;;;1.10;;
12048;SDS011;6085;49.452;8.502;2022-08-02T11:51:59;1.33;;;1.30;;
12048;SDS011;6085;49.452;8.502;2022-08-02T11:56:05;1.50;;;1.20;;
12048;SDS011;6085;49.452;8.502;2022-08-02T12:00:12;1.52;;;1.42;;
12048;SDS011;6085;49.452;8.502;2022-08-02T12:04:17;1.88;;;1.20;;
12048;SDS011;6085;49.452;8.502;2022-08-02T12:08:21;1.33;;;1.20;;
12048;SDS011;6085;49.452;8.502;2022-08-02T12:12:26;1.20;;;1.20;;
12048;SDS011;6085;49.452;8.502;2022-08-02T12:16:32;1.70;;;1.60;;
12048;SDS011;6085;49.452;8.502;2022-08-02T12:20:53;2.28;;;1.73;;
12048;SDS011;6085;49.452;8.502;2022-08-02T12:24:56;1.20;;;1.20;;
12048;SDS011;6085;49.452;8.502;2022-08-02T12:28:58;1.60;;;1.50;;
12048;SDS011;6085;49.452;8.502;2022-08-02T12:33:06;1.75;;;1.50;;
12048;SDS011;6085;49.452;8.502;2022-08-02T12:37:09;2.30;;;1.50;;
12048;SDS011;6085;49.452;8.502;2022-08-02T12:41:12;2.45;;;1.35;;
12048;SDS011;6085;49.452;8.502;2022-08-02T12:45:14;1.48;;;1.38;;
12048;SDS011;6085;49.452;8.502;2022-08-02T12:49:17;1.40;;;1.30;;
12048;SDS011;6085;49.452;8.502;2022-08-02T12:53:19;1.58;;;1.48;;
12048;SDS011;6085;49.452;8.502;2022-08-02T12:57:23;1.63;;;1.50;;
12048;SDS011;6085;49.452;8.502;2022-08-02T13:01:26;1.67;;;1.20;;
12048;SDS011;6085;49.452;8.502;2022-08-02T13:05:29;1.67;;;1.58;;
12048;SDS011;6085;49.452;8.502;2022-08-02T13:09:34;1.65;;;1.23;;
12048;SDS011;6085;49.452;8.502;2022-08-02T13:13:38;1.40;;;1.38;;
12048;SDS011;6085;49.452;8.502;2022-08-02T13:17:40;1.30;;;1.20;;
12048;SDS011;6085;49.452;8.502;2022-08-02T13:21:43;1.42;;;1.27;;
12048;SDS011;6085;49.452;8.502;2022-08-02T13:25:47;1.33;;;1.23;;
12048;SDS011;6085;49.452;8.502;2022-08-02T13:29:50;3.28;;;1.40;;
12048;SDS011;6085;49.452;8.502;2022-08-02T13:33:53;2.38;;;1.38;;
12048;SDS011;6085;49.452;8.502;2022-08-02T13:37:55;2.00;;;1.48;;
12048;SDS011;6085;49.452;8.502;2022-08-02T13:41:57;1.25;;;1.23;;
12048;SDS011;6085;49.452;8.502;2022-08-02T13:46:00;1.30;;;1.20;;
12048;SDS011;6085;49.452;8.502;2022-08-02T13:50:04;1.55;;;1.13;;
12048;SDS011;6085;49.452;8.502;2022-08-02T13:54:06;1.33;;;1.33;;
12048;SDS011;6085;49.452;8.502;2022-08-02T13:58:08;1.60;;;1.40;;
12048;SDS011;6085;49.452;8.502;2022-08-02T14:02:12;1.75;;;1.27;;
12048;SDS011;6085;49.452;8.502;2022-08-02T14:06:14;1.02;;;1.02;;
12048;SDS011;6085;49.452;8.502;2022-08-02T14:10:16;2.38;;;1.10;;
12048;SDS011;6085;49.452;8.502;2022-08-02T14:14:18;1.17;;;1.17;;
12048;SDS011;6085;49.452;8.502;2022-08-02T14:18:21;1.55;;;1.38;;
12048;SDS011;6085;49.452;8.502;2022-08-02T14:22:23;1.30;;;1.20;;
12048;SDS011;6085;49.452;8.502;2022-08-02T14:26:27;1.50;;;1.40;;
12048;SDS011;6085;49.452;8.502;2022-08-02T14:30:30;1.75;;;1.10;;
12048;SDS011;6085;49.452;8.502;2022-08-02T14:34:33;1.13;;;1.13;;
12048;SDS011;6085;49.452;8.502;2022-08-02T14:38:35;1.17;;;1.17;;
12048;SDS011;6085;49.452;8.502;2022-08-02T14:42:37;1.17;;;1.08;;
12048;SDS011;6085;49.452;8.502;2022-08-02T14:46:39;1.15;;;1.15;;
12048;SDS011;6085;49.452;8.502;2022-08-02T14:50:42;1.27;;;1.20;;
12048;SDS011;6085;49.452;8.502;2022-08-02T14:54:44;1.75;;;1.00;;
12048;SDS011;6085;49.452;8.502;2022-08-02T14:58:46;2.03;;;1.15;;
12048;SDS011;6085;49.452;8.502;2022-08-02T15:02:48;1.38;;;1.27;;
12048;SDS011;6085;49.452;8.502;2022-08-02T15:06:52;1.15;;;1.15;;
12048;SDS011;6085;49.452;8.502;2022-08-02T15:10:54;2.25;;;1.20;;
12048;SDS011;6085;49.452;8.502;2022-08-02T15:14:56;1.45;;;1.35;;
12048;SDS011;6085;49.452;8.502;2022-08-02T15:18:59;1.20;;;1.20;;
12048;SDS011;6085;49.452;8.502;2022-08-02T15:23:02;1.13;;;1.13;;
12048;SDS011;6085;49.452;8.502;2022-08-02T15:27:04;1.30;;;1.20;;
12048;SDS011;6085;49.452;8.502;2022-08-02T15:31:11;1.30;;;1.20;;
12048;SDS011;6085;49.452;8.502;2022-08-02T15:35:14;1.20;;;1.20;;
12048;SDS011;6085;49.452;8.502;2022-08-02T15:39:17;1.25;;;1.15;;
12048;SDS011;6085;49.452;8.502;2022-08-02T15:43:19;1.30;;;1.20;;
12048;SDS011;6085;49.452;8.502;2022-08-02T15:47:21;2.90;;;1.45;;
12048;SDS011;6085;49.452;8.502;2022-08-02T15:51:23;1.20;;;1.20;;
12048;SDS011;6085;49.452;8.502;2022-08-02T15:55:26;1.52;;;1.23;;
12048;SDS011;6085;49.452;8.502;2022-08-02T15:59:28;1.67;;;1.20;;
12048;SDS011;6085;49.452;8.502;2022-08-02T16:03:31;1.20;;;1.10;;
12048;SDS011;6085;49.452;8.502;2022-08-02T16:07:32;4.07;;;1.40;;
12048;SDS011;6085;49.452;8.502;2022-08-02T16:11:36;1.48;;;1.38;;
12048;SDS011;6085;49.452;8.502;2022-08-02T16:15:38;1.48;;;1.38;;
12048;SDS011;6085;49.452;8.502;2022-08-02T16:19:39;1.48;;;1.38;;
12048;SDS011;6085;49.452;8.502;2022-08-02T16:23:41;1.55;;;1.45;;
12048;SDS011;6085;49.452;8.502;2022-08-02T16:27:45;1.55;;;1.17;;
12048;SDS011;6085;49.452;8.502;2022-08-02T16:31:47;1.38;;;1.33;;
12048;SDS011;6085;49.452;8.502;2022-08-02T16:35:49;1.83;;;1.15;;
12048;SDS011;6085;49.452;8.502;2022-08-02T16:39:51;2.47;;;1.30;;
12048;SDS011;6085;49.452;8.502;2022-08-02T16:43:54;1.10;;;1.10;;
12048;SDS011;6085;49.452;8.502;2022-08-02T16:47:56;1.35;;;1.25;;
12048;SDS011;6085;49.452;8.502;2022-08-02T16:51:58;1.30;;;1.30;;
12048;SDS011;6085;49.452;8.502;2022-08-02T16:56:00;1.30;;;1.20;;
12048;SDS011;6085;49.452;8.502;2022-08-02T17:00:04;1.20;;;1.20;;
12048;SDS011;6085;49.452;8.502;2022-08-02T17:04:07;1.40;;;1.30;;
12048;SDS011;6085;49.452;8.502;2022-08-02T17:08:09;1.30;;;1.25;;
12048;SDS011;6085;49.452;8.502;2022-08-02T17:12:11;1.55;;;1.27;;
12048;SDS011;6085;49.452;8.502;2022-08-02T17:16:14;2.00;;;1.20;;
12048;SDS011;6085;49.452;8.502;2022-08-02T17:20:16;1.65;;;1.20;;
12048;SDS011;6085;49.452;8.502;2022-08-02T17:24:19;1.95;;;1.00;;
12048;SDS011;6085;49.452;8.502;2022-08-02T17:28:20;1.75;;;1.40;;
12048;SDS011;6085;49.452;8.502;2022-08-02T17:32:24;1.88;;;1.20;;
12048;SDS011;6085;49.452;8.502;2022-08-02T17:36:26;1.75;;;1.25;;
12048;SDS011;6085;49.452;8.502;2022-08-02T17:40:28;1.38;;;1.27;;
12048;SDS011;6085;49.452;8.502;2022-08-02T17:44:31;1.33;;;1.23;;
12048;SDS011;6085;49.452;8.502;2022-08-02T17:48:36;1.50;;;1.40;;
12048;SDS011;6085;49.452;8.502;2022-08-02T17:52:52;1.40;;;1.30;;
12048;SDS011;6085;49.452;8.502;2022-08-02T17:56:55;1.58;;;1.48;;
12048;SDS011;6085;49.452;8.502;2022-08-02T18:00:58;1.85;;;1.00;;
12048;SDS011;6085;49.452;8.502;2022-08-02T18:05:03;1.27;;;1.27;;
12048;SDS011;6085;49.452;8.502;2022-08-02T18:09:06;1.20;;;1.10;;
12048;SDS011;6085;49.452;8.502;2022-08-02T18:13:11;2.05;;;1.23;;
12048;SDS011;6085;49.452;8.502;2022-08-02T18:17:16;1.33;;;1.10;;
12048;SDS011;6085;49.452;8.502;2022-08-02T18:21:22;1.10;;;1.08;;
12048;SDS011;6085;49.452;8.502;2022-08-02T18:25:24;1.35;;;1.30;;
12048;SDS011;6085;49.452;8.502;2022-08-02T18:29:26;1.75;;;1.10;;
12048;SDS011;6085;49.452;8.502;2022-08-02T18:33:28;1.40;;;1.30;;
12048;SDS011;6085;49.452;8.502;2022-08-02T18:37:31;1.23;;;1.13;;
12048;SDS011;6085;49.452;8.502;2022-08-02T18:41:33;1.35;;;1.25;;
12048;SDS011;6085;49.452;8.502;2022-08-02T18:45:35;1.63;;;1.48;;
12048;SDS011;6085;49.452;8.502;2022-08-02T18:49:37;1.40;;;1.30;;
12048;SDS011;6085;49.452;8.502;2022-08-02T18:53:41;1.30;;;1.20;;
12048;SDS011;6085;49.452;8.502;2022-08-02T18:57:43;1.58;;;1.25;;
12048;SDS011;6085;49.452;8.502;2022-08-02T19:01:45;1.80;;;1.40;;
12048;SDS011;6085;49.452;8.502;2022-08-02T19:05:47;1.40;;;1.30;;
12048;SDS011;6085;49.452;8.502;2022-08-02T19:09:50;1.20;;;1.10;;
12048;SDS011;6085;49.452;8.502;2022-08-02T19:13:52;1.67;;;1.58;;
12048;SDS011;6085;49.452;8.502;2022-08-02T19:17:54;2.00;;;1.90;;
12048;SDS011;6085;49.452;8.502;2022-08-02T19:21:57;1.58;;;1.48;;
12048;SDS011;6085;49.452;8.502;2022-08-02T19:26:00;1.70;;;1.60;;
12048;SDS011;6085;49.452;8.502;2022-08-02T19:30:03;2.17;;;1.30;;
12048;SDS011;6085;49.452;8.502;2022-08-02T19:34:05;1.50;;;1.40;;
12048;SDS011;6085;49.452;8.502;2022-08-02T19:38:08;1.63;;;1.20;;
12048;SDS011;6085;49.452;8.502;2022-08-02T19:42:12;1.50;;;1.40;;
12048;SDS011;6085;49.452;8.502;2022-08-02T19:46:14;2.38;;;1.48;;
12048;SDS011;6085;49.452;8.502;2022-08-02T19:50:17;1.40;;;1.30;;
12048;SDS011;6085;49.452;8.502;2022-08-02T19:54:19;1.60;;;1.50;;
12048;SDS011;6085;49.452;8.502;2022-08-02T19:58:24;1.60;;;1.50;;
12048;SDS011;6085;49.452;8.502;2022-08-02T20:02:27;1.75;;;1.65;;
12048;SDS011;6085;49.452;8.502;2022-08-02T20:06:29;1.67;;;1.58;;
12048;SDS011;6085;49.452;8.502;2022-08-02T20:10:31;1.60;;;1.50;;
12048;SDS011;6085;49.452;8.502;2022-08-02T20:14:34;1.88;;;1.70;;
12048;SDS011;6085;49.452;8.502;2022-08-02T20:18:36;1.80;;;1.70;;
12048;SDS011;6085;49.452;8.502;2022-08-02T20:22:38;1.75;;;1.65;;
12048;SDS011;6085;49.452;8.502;2022-08-02T20:26:57;1.83;;;1.70;;
12048;SDS011;6085;49.452;8.502;2022-08-02T20:31:01;2.10;;;1.98;;
12048;SDS011;6085;49.452;8.502;2022-08-02T20:35:05;2.13;;;1.92;;
12048;SDS011;6085;49.452;8.502;2022-08-02T20:39:07;1.90;;;1.70;;
12048;SDS011;6085;49.452;8.502;2022-08-02T20:43:10;2.00;;;1.90;;
12048;SDS011;6085;49.452;8.502;2022-08-02T20:47:13;1.90;;;1.80;;
12048;SDS011;6085;49.452;8.502;2022-08-02T20:51:15;2.25;;;1.65;;
12048;SDS011;6085;49.452;8.502;2022-08-02T20:55:18;1.95;;;1.77;;
12048;SDS011;6085;49.452;8.502;2022-08-02T20:59:20;1.92;;;1.77;;
12048;SDS011;6085;49.452;8.502;2022-08-02T21:03:23;2.33;;;2.10;;
12048;SDS011;6085;49.452;8.502;2022-08-02T21:07:25;2.35;;;2.15;;
12048;SDS011;6085;49.452;8.502;2022-08-02T21:11:27;1.80;;;1.70;;
12048;SDS011;6085;49.452;8.502;2022-08-02T21:15:30;1.90;;;1.80;;
12048;SDS011;6085;49.452;8.502;2022-08-02T21:19:34;1.90;;;1.80;;
12048;SDS011;6085;49.452;8.502;2022-08-02T21:23:36;3.00;;;1.90;;
12048;SDS011;6085;49.452;8.502;2022-08-02T21:27:38;2.20;;;2.10;;
12048;SDS011;6085;49.452;8.502;2022-08-02T21:31:40;1.90;;;1.80;;
12048;SDS011;6085;49.452;8.502;2022-08-02T21:35:43;1.70;;;1.60;;
12048;SDS011;6085;49.452;8.502;2022-08-02T21:39:45;2.30;;;1.85;;
12048;SDS011;6085;49.452;8.502;2022-08-02T21:43:47;3.97;;;2.22;;
12048;SDS011;6085;49.452;8.502;2022-08-02T21:47:49;2.70;;;2.25;;
12048;SDS011;6085;49.452;8.502;2022-08-02T21:51:52;2.45;;;2.25;;
12048;SDS011;6085;49.452;8.502;2022-08-02T21:55:54;2.90;;;2.35;;
12048;SDS011;6085;49.452;8.502;2022-08-02T21:59:56;2.70;;;2.50;;
12048;SDS011;6085;49.452;8.502;2022-08-02T22:03:58;3.63;;;2.60;;
12048;SDS011;6085;49.452;8.502;2022-08-02T22:08:02;3.10;;;2.80;;
12048;SDS011;6085;49.452;8.502;2022-08-02T22:12:05;3.40;;;3.00;;
12048;SDS011;6085;49.452;8.502;2022-08-02T22:16:08;2.90;;;2.63;;
12048;SDS011;6085;49.452;8.502;2022-08-02T22:20:10;3.47;;;2.60;;
12048;SDS011;6085;49.452;8.502;2022-08-02T22:24:15;2.90;;;2.70;;
12048;SDS011;6085;49.452;8.502;2022-08-02T22:28:17;2.78;;;2.58;;
12048;SDS011;6085;49.452;8.502;2022-08-02T22:32:19;2.78;;;2.58;;
12048;SDS011;6085;49.452;8.502;2022-08-02T22:36:35;2.75;;;2.55;;
12048;SDS011;6085;49.452;8.502;2022-08-02T22:40:40;2.60;;;2.40;;
12048;SDS011;6085;49.452;8.502;2022-08-02T22:44:42;3.72;;;2.60;;
12048;SDS011;6085;49.452;8.502;2022-08-02T22:48:44;2.38;;;2.10;;
12048;SDS011;6085;49.452;8.502;2022-08-02T22:52:46;2.50;;;2.30;;
12048;SDS011;6085;49.452;8.502;2022-08-02T22:56:49;2.55;;;2.35;;
12048;SDS011;6085;49.452;8.502;2022-08-02T23:00:51;2.72;;;2.53;;
12048;SDS011;6085;49.452;8.502;2022-08-02T23:04:53;3.58;;;3.05;;
12048;SDS011;6085;49.452;8.502;2022-08-02T23:08:55;3.03;;;2.72;;
12048;SDS011;6085;49.452;8.502;2022-08-02T23:12:58;2.80;;;2.55;;
12048;SDS011;6085;49.452;8.502;2022-08-02T23:17:00;2.65;;;2.55;;
12048;SDS011;6085;49.452;8.502;2022-08-02T23:21:19;2.40;;;2.20;;
12048;SDS011;6085;49.452;8.502;2022-08-02T23:25:21;2.67;;;2.47;;
12048;SDS011;6085;49.452;8.502;2022-08-02T23:29:24;2.60;;;2.40;;
12048;SDS011;6085;49.452;8.502;2022-08-02T23:33:26;3.17;;;2.42;;
12048;SDS011;6085;49.452;8.502;2022-08-02T23:37:28;2.70;;;2.50;;
12048;SDS011;6085;49.452;8.502;2022-08-02T23:41:30;2.70;;;2.30;;
12048;SDS011;6085;49.452;8.502;2022-08-02T23:45:33;2.50;;;2.30;;
12048;SDS011;6085;49.452;8.502;2022-08-02T23:49:35;2.50;;;2.30;;
12048;SDS011;6085;49.452;8.502;2022-08-02T23:53:37;2.85;;;2.65;;
12048;SDS011;6085;49.452;8.502;2022-08-02T23:57:39;3.28;;;2.25;;
